San Ardo, CA (93450)

12:48 AM PDT on July 27, 2016 (GMT -0700)
South of San Ardo | | Change Station

Elev 600 ft 35.97 °N, 120.90 °W | Updated 12 seconds ago

Clear
Clear
62.6 °F
Feels Like 62.6 °F
N
0.0
Wind Variable Wind from SW
Gusts 0.0 mph

Today
High -- | Low -- °F
--% Chance of Precip.
Yesterday
High -- | Low -- °F
Precip. -- in
Pressure 29.87 in
Visibility 10.0 miles
Clouds Clear
Dew Point 52 °F
Humidity 69%
Rainfall 0.00 in
Snow Depth Not available.
6:07 AM 8:12 PM
Last Quarter, 46% visible
METAR KPRB 270653Z AUTO 00000KT 10SM CLR 22/06 A2989 RMK AO2 SLP113 T02220056 TSNO
Pressure 29.87 in
Visibility 10.0 miles
Clouds Clear
Dew Point 52 °F
Humidity 69%
Rainfall 0.00 in
Snow Depth Not available.
6:07 AM 8:12 PM
Last Quarter, 46% visible
METAR KPRB 270653Z AUTO 00000KT 10SM CLR 22/06 A2989 RMK AO2 SLP113 T02220056 TSNO

10-Day Weather Forecast

Almanac

Astronomy

Jul. 27, 2016 Rise Set
Actual Time
Civil Twilight
Nautical Twilight
Astronomical Twilight
Moon
Length of Visible Light
Length of Day
Tomorrow will be .
, % of the Moon is Illuminated

Today's Extremes

State Highs State Lows

Community

WunderPhotos

Upload Photos

1,927,818 photos uploaded!

WunderBlog® & News

Nearby

Air Quality

  Air Quality AQ Index Pollutant
Not available.

Snow Depth

Station Depth Elevation

Earthquake Activity

City Distance Mag. Time & Date
Minimum magnitude displayed is 2.5.

Coastal Water Temperatures

Place Temperature

Stations

Nearby Weather Stations

Station Location Temp. Windchill Dew Point Humidity Wind Precip. Elev Updated Type
                   

Watches & Warnings

There are currently no watches in effect.